Time;durP1;ratioP1;P1;durP2;ratioP2;P2;SDS_P1;SDS_P2;PMS_P1;PMS_P2;Temp;Humidity;BMP_temperature;BMP_pressure;BME280_temperature;BME280_humidity;BME280_pressure;Samples;Min_cycle;Max_cycle;Signal;HPM_P1;HPM_P2
2021/11/17 02:27:29;;;;;;;9.45;7.97;;;16.50;59.10;;;;;;5053385;28;20226;-66
2021/11/17 02:29:55;;;;;;;9.48;8.02;;;16.50;59.10;;;;;;5052502;28;20220;-66
2021/11/17 02:32:42;;;;;;;9.55;8.50;;;16.50;59.10;;;;;;5053426;28;20187;-66
2021/11/17 02:35:37;;;;;;;11.18;8.77;;;16.50;59.10;;;;;;5053147;28;20638;-66
2021/11/17 02:38:18;;;;;;;11.23;8.93;;;16.50;59.10;;;;;;5053302;28;20171;-66
2021/11/17 02:41:08;;;;;;;9.63;8.50;;;16.50;59.10;;;;;;5052817;28;20198;-67
2021/11/17 02:43:55;;;;;;;10.73;8.98;;;16.50;59.10;;;;;;5051765;28;20653;-68
2021/11/17 02:46:33;;;;;;;9.35;8.02;;;16.50;59.10;;;;;;5053036;28;20616;-68
2021/11/17 02:49:23;;;;;;;10.23;8.55;;;16.40;59.10;;;;;;5052966;28;20190;-67
2021/11/17 02:52:07;;;;;;;10.45;9.32;;;16.40;59.10;;;;;;5051581;28;20167;-68
2021/11/17 02:54:48;;;;;;;10.77;9.48;;;16.50;59.10;;;;;;5052228;28;20521;-68
2021/11/17 02:57:42;;;;;;;9.55;8.55;;;16.40;59.00;;;;;;5052302;28;20171;-68
2021/11/17 03:00:26;;;;;;;10.15;8.27;;;16.40;59.00;;;;;;5052275;28;20237;-67
2021/11/17 03:03:09;;;;;;;9.45;8.50;;;16.40;59.10;;;;;;5052081;28;20554;-67
2021/11/17 03:05:53;;;;;;;9.45;7.90;;;16.40;59.10;;;;;;5051222;28;20392;-67
2021/11/17 03:08:28;;;;;;;9.63;8.07;;;16.40;59.00;;;;;;5051890;28;20251;-67
2021/11/17 03:11:22;;;;;;;9.70;8.57;;;16.40;59.10;;;;;;5050892;28;20171;-67
2021/11/17 03:14:09;;;;;;;9.98;8.88;;;16.40;59.10;;;;;;5051643;28;20248;-67
2021/11/17 03:16:58;;;;;;;9.88;8.82;;;16.40;59.10;;;;;;5051970;28;20621;-68
2021/11/17 03:19:58;;;;;;;10.48;8.52;;;16.40;59.10;;;;;;5051529;28;20178;-66
2021/11/17 03:22:39;;;;;;;9.38;8.43;;;16.40;59.10;;;;;;5052253;28;20186;-67
2021/11/17 03:25:17;;;;;;;9.88;8.45;;;16.30;59.10;;;;;;5051052;28;20170;-67
2021/11/17 03:27:57;;;;;;;11.07;8.98;;;16.40;59.20;;;;;;5051878;28;20175;-68
2021/11/17 03:30:49;;;;;;;9.60;8.32;;;16.40;59.10;;;;;;5051887;28;20175;-66
2021/11/17 03:33:39;;;;;;;9.88;8.23;;;16.30;59.10;;;;;;5051150;28;20175;-66
2021/11/17 03:36:40;;;;;;;9.88;8.77;;;16.30;59.20;;;;;;5051955;28;20203;-65
2021/11/17 03:39:15;;;;;;;10.48;8.15;;;16.40;59.80;;;;;;5046835;28;20244;-67
2021/11/17 03:41:50;;;;;;;10.75;8.23;;;16.30;59.10;;;;;;5051279;28;20664;-68
2021/11/17 03:44:21;;;;;;;9.07;8.13;;;16.30;59.10;;;;;;5051825;28;20242;-66
2021/11/17 03:47:18;;;;;;;10.82;9.15;;;16.30;59.20;;;;;;5050912;28;20214;-67
2021/11/17 03:50:12;;;;;;;10.05;8.18;;;16.30;59.20;;;;;;5051604;28;20530;-66
2021/11/17 03:53:07;;;;;;;10.00;8.23;;;16.30;59.20;;;;;;5051747;28;20182;-68
2021/11/17 03:55:47;;;;;;;8.80;7.90;;;16.30;59.20;;;;;;5051378;28;20626;-68
2021/11/17 03:58:42;;;;;;;10.02;8.48;;;16.30;59.20;;;;;;5052217;28;20178;-68
2021/11/17 04:01:29;;;;;;;9.43;8.32;;;16.30;59.20;;;;;;5051161;28;20175;-66
2021/11/17 04:04:16;;;;;;;9.88;8.50;;;16.30;59.20;;;;;;5051749;28;20520;-66
2021/11/17 04:06:47;;;;;;;10.18;8.20;;;16.30;59.20;;;;;;5051351;28;20214;-66
2021/11/17 04:09:43;;;;;;;8.85;7.95;;;16.30;59.20;;;;;;5050900;28;20258;-67
2021/11/17 04:12:38;;;;;;;10.90;8.82;;;16.20;59.10;;;;;;5052003;28;20179;-68
2021/11/17 04:15:42;;;;;;;9.07;8.15;;;16.30;59.10;;;;;;5047817;28;20186;-68
2021/11/17 04:18:26;;;;;;;10.18;8.38;;;16.30;59.20;;;;;;5052960;28;20590;-68
2021/11/17 04:21:17;;;;;;;10.15;8.20;;;16.20;59.10;;;;;;5055427;28;20266;-68
2021/11/17 04:24:05;;;;;;;11.95;9.35;;;16.20;59.10;;;;;;5055262;28;20254;-69
2021/11/17 04:26:35;;;;;;;9.75;8.30;;;16.20;59.10;;;;;;5055049;28;20697;-67
2021/11/17 04:29:07;;;;;;;10.00;8.57;;;16.20;59.10;;;;;;5054824;28;20206;-66
2021/11/17 04:31:39;;;;;;;9.30;8.30;;;16.20;59.10;;;;;;5054998;28;20232;-67
2021/11/17 04:34:16;;;;;;;9.88;8.80;;;16.20;59.10;;;;;;5055085;28;20221;-65
2021/11/17 04:37:00;;;;;;;9.93;8.07;;;16.20;59.10;;;;;;5054362;28;20171;-66
2021/11/17 04:40:04;;;;;;;9.68;8.60;;;16.20;59.20;;;;;;5055443;28;20175;-67
2021/11/17 04:43:06;;;;;;;9.32;8.25;;;16.20;59.10;;;;;;5054209;28;20189;-67
2021/11/17 04:45:50;;;;;;;9.30;8.25;;;16.20;59.20;;;;;;5054654;28;20254;-68
2021/11/17 04:48:49;;;;;;;9.95;8.18;;;16.10;59.10;;;;;;5055112;28;20543;-67
2021/11/17 04:51:24;;;;;;;10.43;8.45;;;16.20;59.10;;;;;;5054293;28;20178;-67
2021/11/17 04:53:59;;;;;;;9.27;7.93;;;16.10;59.10;;;;;;5054986;28;20261;-68
2021/11/17 04:56:37;;;;;;;9.93;8.20;;;16.10;59.10;;;;;;5054342;28;20867;-68
2021/11/17 04:59:39;;;;;;;10.20;8.27;;;16.10;59.70;;;;;;5054918;28;20175;-68
2021/11/17 05:02:12;;;;;;;9.13;7.45;;;16.10;59.10;;;;;;5054923;28;20178;-67
2021/11/17 05:04:59;;;;;;;9.68;8.10;;;16.10;59.10;;;;;;5053791;28;20178;-68
2021/11/17 05:08:01;;;;;;;10.77;8.50;;;16.10;59.10;;;;;;5054538;28;20268;-67
2021/11/17 05:10:54;;;;;;;9.38;8.30;;;16.10;59.20;;;;;;5053707;28;20942;-68
2021/11/17 05:13:38;;;;;;;8.60;7.65;;;16.10;59.10;;;;;;5054905;28;20191;-69
2021/11/17 05:16:31;;;;;;;9.35;8.23;;;16.10;59.10;;;;;;5054748;28;20175;-68
2021/11/17 05:19:15;;;;;;;8.75;7.85;;;16.10;59.10;;;;;;5054032;28;20179;-69
2021/11/17 05:22:25;;;;;;;8.80;6.95;;;16.10;59.10;;;;;;5054343;28;20186;-70
2021/11/17 05:24:57;;;;;;;8.70;7.60;;;16.10;59.10;;;;;;5053025;28;20225;-69
2021/11/17 05:27:29;;;;;;;10.38;8.60;;;16.00;59.10;;;;;;5054291;28;20206;-68
2021/11/17 05:30:02;;;;;;;8.65;7.75;;;16.00;59.10;;;;;;5053502;28;20171;-68
2021/11/17 05:32:52;;;;;;;8.85;7.55;;;16.00;59.10;;;;;;5053453;28;20535;-67
2021/11/17 05:35:33;;;;;;;10.00;7.68;;;16.00;59.20;;;;;;5054208;28;20206;-65
2021/11/17 05:38:27;;;;;;;9.27;8.25;;;16.00;59.20;;;;;;5054298;28;20179;-66
2021/11/17 05:41:13;;;;;;;8.57;7.50;;;16.00;59.20;;;;;;5053788;28;20258;-67
2021/11/17 05:43:57;;;;;;;8.77;7.82;;;16.00;59.10;;;;;;5053670;28;20179;-69
2021/11/17 05:46:54;;;;;;;8.30;7.40;;;16.00;59.10;;;;;;5053215;28;20207;-68
2021/11/17 05:49:40;;;;;;;8.98;7.78;;;16.00;59.20;;;;;;5054142;28;20179;-67
2021/11/17 05:52:33;;;;;;;9.50;6.97;;;16.00;59.20;;;;;;5054062;28;20175;-68
2021/11/17 05:55:22;;;;;;;9.75;6.95;;;16.00;59.20;;;;;;5053876;28;20183;-68
2021/11/17 05:57:54;;;;;;;9.50;7.55;;;16.00;59.20;;;;;;5053898;28;20181;-69
2021/11/17 06:01:05;;;;;;;9.50;7.70;;;16.00;59.20;;;;;;5053122;28;20167;-68
2021/11/17 06:04:16;;;;;;;8.82;7.68;;;16.00;59.20;;;;;;5046222;28;20194;-68
2021/11/17 06:06:41;;;;;;;8.90;7.30;;;16.00;59.20;;;;;;5052394;28;20222;-66
2021/11/17 06:09:06;;;;;;;9.27;7.35;;;16.00;59.20;;;;;;5053749;28;20580;-67
2021/11/17 06:11:40;;;;;;;8.18;7.15;;;16.00;59.20;;;;;;5053340;28;20279;-68
2021/11/17 06:14:08;;;;;;;8.27;7.00;;;15.90;59.20;;;;;;5052783;28;20179;-69
2021/11/17 06:16:38;;;;;;;9.65;8.52;;;15.90;59.20;;;;;;5035539;28;20276;-68
2021/11/17 06:19:04;;;;;;;8.35;7.38;;;15.90;59.20;;;;;;5035891;28;20183;-68
2021/11/17 06:21:29;;;;;;;9.85;8.15;;;15.90;59.20;;;;;;5052274;28;20186;-69
2021/11/17 06:23:57;;;;;;;8.23;7.05;;;16.00;59.20;;;;;;5053232;28;20564;-68
2021/11/17 06:26:24;;;;;;;9.63;7.60;;;15.90;59.20;;;;;;5052031;28;20260;-68
2021/11/17 06:28:54;;;;;;;9.38;7.75;;;15.90;59.20;;;;;;5051266;28;20194;-67
2021/11/17 06:31:20;;;;;;;8.27;7.20;;;15.90;59.20;;;;;;5053171;28;20189;-67
2021/11/17 06:33:45;;;;;;;8.88;7.18;;;15.90;59.20;;;;;;5034790;28;20171;-67
2021/11/17 06:36:11;;;;;;;8.75;7.15;;;15.90;59.30;;;;;;5052365;28;20167;-65
2021/11/17 06:38:36;;;;;;;9.27;7.38;;;15.90;59.20;;;;;;5052612;28;20178;-66
2021/11/17 06:41:03;;;;;;;8.60;7.28;;;15.90;59.30;;;;;;5052896;28;20171;-65
2021/11/17 06:43:30;;;;;;;7.97;6.78;;;15.90;59.20;;;;;;5034342;28;20579;-67
2021/11/17 06:45:56;;;;;;;8.35;7.40;;;15.90;59.30;;;;;;5052900;28;20274;-66
2021/11/17 06:48:22;;;;;;;8.70;7.53;;;15.90;59.30;;;;;;5053052;28;20206;-66
2021/11/17 06:50:48;;;;;;;9.90;7.65;;;15.90;59.30;;;;;;5051865;28;20186;-66
2021/11/17 06:53:14;;;;;;;8.05;7.03;;;15.90;59.30;;;;;;5052654;28;20182;-67
2021/11/17 06:55:40;;;;;;;9.52;8.02;;;15.90;59.30;;;;;;5051703;28;20175;-69
2021/11/17 06:58:05;;;;;;;7.60;6.70;;;15.80;59.20;;;;;;5052471;28;20634;-67
2021/11/17 07:00:32;;;;;;;7.88;7.03;;;15.90;59.40;;;;;;5052496;28;20197;-66
2021/11/17 07:03:01;;;;;;;8.30;7.05;;;15.80;59.30;;;;;;5051951;28;20179;-66
2021/11/17 07:05:27;;;;;;;8.02;6.53;;;15.90;59.30;;;;;;5052407;28;20657;-66
2021/11/17 07:07:56;;;;;;;8.35;6.80;;;15.90;59.40;;;;;;5052204;28;20182;-65
2021/11/17 07:10:24;;;;;;;7.63;6.82;;;16.00;59.50;;;;;;5051869;28;20178;-66
2021/11/17 07:12:50;;;;;;;8.15;7.35;;;16.10;59.30;;;;;;5052084;28;20638;-67
2021/11/17 07:15:15;;;;;;;6.88;6.15;;;16.20;59.10;;;;;;5052582;28;20178;-68
2021/11/17 07:17:41;;;;;;;7.20;6.30;;;16.40;59.20;;;;;;5051465;28;20183;-68
2021/11/17 07:20:07;;;;;;;6.47;5.80;;;16.50;59.00;;;;;;5052380;28;20538;-67
2021/11/17 07:22:33;;;;;;;7.78;6.20;;;16.70;58.70;;;;;;5050864;28;20709;-67
2021/11/17 07:24:58;;;;;;;7.25;6.03;;;16.90;58.40;;;;;;5051316;28;20208;-67
2021/11/17 07:27:24;;;;;;;6.13;5.50;;;17.10;58.20;;;;;;5052088;28;20615;-68
2021/11/17 07:29:54;;;;;;;6.18;5.43;;;17.20;57.80;;;;;;5051988;28;20175;-67
2021/11/17 07:32:21;;;;;;;6.25;5.65;;;17.30;57.60;;;;;;5051417;28;20183;-66
2021/11/17 07:34:46;;;;;;;7.00;6.05;;;17.40;58.10;;;;;;5051882;28;20235;-66
2021/11/17 07:37:12;;;;;;;6.32;5.35;;;17.40;57.50;;;;;;5051926;28;20661;-65
2021/11/17 07:39:37;;;;;;;5.85;5.25;;;17.40;57.50;;;;;;5050863;28;20266;-68
2021/11/17 07:42:03;;;;;;;6.10;5.45;;;17.50;57.50;;;;;;5052273;28;20657;-67
2021/11/17 07:44:29;;;;;;;6.65;5.95;;;17.80;57.20;;;;;;5051388;28;20596;-67
2021/11/17 07:46:54;;;;;;;5.72;4.45;;;18.10;56.50;;;;;;5051081;28;20214;-67
2021/11/17 07:49:20;;;;;;;4.72;4.32;;;18.40;56.10;;;;;;5051764;28;20175;-66
2021/11/17 07:51:46;;;;;;;5.80;4.75;;;18.60;55.70;;;;;;5051554;28;20656;-72
2021/11/17 07:54:12;;;;;;;5.80;4.55;;;18.70;55.50;;;;;;5050359;28;20179;-72
2021/11/17 07:56:39;;;;;;;5.00;4.50;;;18.90;55.30;;;;;;5051492;28;20194;-73
2021/11/17 07:59:05;;;;;;;4.80;4.28;;;18.90;55.20;;;;;;5051204;28;20220;-73
2021/11/17 08:01:30;;;;;;;5.82;4.97;;;18.90;55.30;;;;;;5033642;28;20175;-72
2021/11/17 08:03:56;;;;;;;7.95;4.70;;;18.90;55.70;;;;;;5050429;28;20634;-72
2021/11/17 08:06:23;;;;;;;6.00;4.68;;;18.90;55.70;;;;;;5050870;28;20217;-72
2021/11/17 08:08:49;;;;;;;5.28;4.78;;;18.90;55.70;;;;;;5050089;28;20175;-71
2021/11/17 08:11:14;;;;;;;8.82;5.00;;;18.90;55.70;;;;;;5033859;28;20610;-70
2021/11/17 08:13:40;;;;;;;7.70;5.10;;;18.90;55.80;;;;;;5032835;28;20733;-73
2021/11/17 08:16:05;;;;;;;7.28;4.88;;;18.90;55.80;;;;;;5051713;28;20248;-71
2021/11/17 08:18:32;;;;;;;6.72;4.60;;;18.90;55.90;;;;;;5051251;28;20182;-70
2021/11/17 08:20:58;;;;;;;7.20;5.07;;;18.90;55.90;;;;;;5050806;28;20175;-70
2021/11/17 08:23:24;;;;;;;6.10;4.95;;;18.90;56.00;;;;;;5051391;28;20182;-70
2021/11/17 08:25:49;;;;;;;5.20;4.70;;;18.90;56.10;;;;;;5051352;28;20282;-69
2021/11/17 08:28:15;;;;;;;4.97;4.10;;;18.90;56.10;;;;;;5051024;28;20289;-72
2021/11/17 08:30:40;;;;;;;6.03;4.60;;;18.90;56.10;;;;;;5051221;28;20186;-73
2021/11/17 08:33:06;;;;;;;6.30;5.15;;;18.90;56.20;;;;;;5051600;28;20215;-75
2021/11/17 08:35:32;;;;;;;7.65;4.70;;;18.90;56.30;;;;;;5050365;28;20262;-73
2021/11/17 08:37:58;;;;;;;5.72;4.82;;;18.80;56.50;;;;;;5051546;28;20694;-72
2021/11/17 08:40:28;;;;;;;11.02;5.22;;;18.70;56.60;;;;;;5051642;28;20179;-72
2021/11/17 08:42:54;;;;;;;5.45;4.65;;;18.60;56.90;;;;;;5050848;28;20179;-72
2021/11/17 08:45:20;;;;;;;5.93;4.75;;;18.40;57.10;;;;;;5051240;28;20689;-72
2021/11/17 08:47:45;;;;;;;6.18;5.00;;;18.30;57.30;;;;;;5050976;28;20191;-71
2021/11/17 08:50:13;;;;;;;6.97;4.85;;;18.30;57.40;;;;;;5050601;28;20645;-69
2021/11/17 08:52:38;;;;;;;4.95;4.35;;;18.20;57.30;;;;;;5050932;28;20175;-69
2021/11/17 08:55:04;;;;;;;6.50;4.90;;;18.30;57.40;;;;;;5051335;28;20261;-71
2021/11/17 08:57:30;;;;;;;5.40;4.72;;;18.30;57.40;;;;;;5049116;28;20198;-71
2021/11/17 08:59:56;;;;;;;7.78;5.13;;;18.30;57.30;;;;;;5051644;28;20183;-73
2021/11/17 09:02:21;;;;;;;6.90;4.93;;;18.40;57.30;;;;;;5050601;28;20233;-72
2021/11/17 09:04:47;;;;;;;6.93;5.00;;;18.40;57.20;;;;;;5051469;28;20572;-73
2021/11/17 09:07:13;;;;;;;5.05;4.47;;;18.50;57.10;;;;;;5054854;28;20210;-70
2021/11/17 09:09:39;;;;;;;6.10;4.72;;;18.40;57.10;;;;;;5053801;28;20167;-75
2021/11/17 09:12:05;;;;;;;7.45;5.63;;;18.40;57.20;;;;;;5054904;28;20191;-66
2021/11/17 09:14:30;;;;;;;6.63;4.93;;;18.40;57.30;;;;;;5054281;28;20211;-64
2021/11/17 09:16:56;;;;;;;6.45;4.68;;;18.40;57.60;;;;;;5054094;28;20591;-63
2021/11/17 09:19:22;;;;;;;5.78;4.93;;;18.30;57.60;;;;;;5054486;28;20280;-64
2021/11/17 09:21:48;;;;;;;7.53;4.82;;;18.30;57.90;;;;;;5054103;28;20183;-63
2021/11/17 09:24:15;;;;;;;8.25;5.13;;;18.20;58.60;;;;;;5053843;28;20182;-63
2021/11/17 09:26:41;;;;;;;6.25;4.78;;;18.10;58.10;;;;;;5054211;28;20218;-63
2021/11/17 09:29:07;;;;;;;7.40;4.78;;;18.20;58.10;;;;;;5054543;28;20175;-63
2021/11/17 09:31:33;;;;;;;7.60;5.60;;;18.20;58.10;;;;;;5053412;28;20590;-64
2021/11/17 09:33:59;;;;;;;6.80;5.13;;;18.30;58.10;;;;;;5053699;28;20171;-64
2021/11/17 09:36:26;;;;;;;7.43;5.03;;;18.30;58.10;;;;;;5054135;28;20175;-65
2021/11/17 09:38:52;;;;;;;7.10;5.45;;;18.30;58.00;;;;;;5053350;28;20171;-66
2021/11/17 09:41:26;;;;;;;8.63;5.35;;;18.40;57.90;;;;;;5054016;28;20198;-65
2021/11/17 09:43:54;;;;;;;5.78;4.93;;;18.40;57.80;;;;;;5036788;28;20260;-64
2021/11/17 09:46:21;;;;;;;7.78;5.20;;;18.50;57.80;;;;;;5053249;28;20222;-68
2021/11/17 09:48:48;;;;;;;7.22;5.28;;;18.40;57.90;;;;;;5054044;28;20175;-66
2021/11/17 09:51:42;;;;;;;7.65;5.45;;;18.30;58.00;;;;;;5054184;28;20183;-66
2021/11/17 09:54:44;;;;;;;7.88;5.28;;;18.30;58.20;;;;;;5053087;28;20278;-64
2021/11/17 09:57:12;;;;;;;7.10;5.13;;;18.20;58.40;;;;;;5052870;28;20167;-64
2021/11/17 09:59:59;;;;;;;8.70;5.40;;;18.20;58.60;;;;;;5053152;28;20171;-64
2021/11/17 10:02:47;;;;;;;11.05;5.50;;;18.20;58.50;;;;;;5052492;28;20171;-65
2021/11/17 10:05:12;;;;;;;7.55;4.80;;;18.20;58.40;;;;;;5038063;28;20175;-64
2021/11/17 10:08:14;;;;;;;6.47;4.97;;;18.30;58.50;;;;;;5052850;28;20268;-64
2021/11/17 10:13:45;;;;;;;6.72;4.82;;;18.30;58.30;;;;;;5037605;28;20198;-63
2021/11/17 10:16:11;;;;;;;5.57;4.53;;;18.30;58.50;;;;;;5052311;28;20175;-63
2021/11/17 10:18:39;;;;;;;8.35;5.68;;;18.20;58.60;;;;;;5053458;28;20254;-64
2021/11/17 10:21:28;;;;;;;12.13;4.97;;;18.10;58.70;;;;;;5053143;28;20195;-63
2021/11/17 10:24:14;;;;;;;7.22;4.85;;;18.10;58.80;;;;;;5053324;28;20182;-63
2021/11/17 10:26:50;;;;;;;7.85;5.10;;;18.10;58.90;;;;;;5052438;28;20276;-64
2021/11/17 10:29:56;;;;;;;6.57;4.88;;;18.10;58.90;;;;;;5053624;28;20197;-63
2021/11/17 10:32:32;;;;;;;6.25;4.47;;;18.10;58.90;;;;;;5044833;28;20190;-64
2021/11/17 10:35:03;;;;;;;5.78;4.78;;;18.50;58.90;;;;;;5061446;28;20548;-64
2021/11/17 10:37:38;;;;;;;9.27;5.05;;;18.10;58.80;;;;;;5065839;28;20257;-64
2021/11/17 10:40:24;;;;;;;7.47;4.68;;;18.10;58.70;;;;;;5073412;28;20174;-64
2021/11/17 10:43:07;;;;;;;7.35;5.07;;;18.00;58.80;;;;;;5032031;28;20172;-65
2021/11/17 10:45:39;;;;;;;8.73;5.28;;;18.00;58.90;;;;;;5032652;28;20627;-64
2021/11/17 10:48:04;;;;;;;6.47;4.93;;;18.00;59.00;;;;;;5032651;28;20187;-64
2021/11/17 10:50:35;;;;;;;7.80;4.53;;;17.90;59.00;;;;;;5049647;28;20172;-63
2021/11/17 10:53:10;;;;;;;6.55;4.97;;;17.90;59.00;;;;;;5072862;28;20174;-63
2021/11/17 10:55:50;;;;;;;6.68;5.38;;;18.00;58.90;;;;;;5072088;28;20265;-64
2021/11/17 10:58:22;;;;;;;6.50;5.03;;;18.00;58.80;;;;;;5066716;28;20190;-64
2021/11/17 11:00:52;;;;;;;6.22;4.47;;;18.10;58.80;;;;;;5052571;28;20224;-65
2021/11/17 11:03:20;;;;;;;7.68;4.35;;;18.10;58.80;;;;;;5051951;28;20199;-65
2021/11/17 11:06:00;;;;;;;6.53;4.40;;;18.00;58.70;;;;;;5052297;28;20695;-65
2021/11/17 11:08:33;;;;;;;6.57;4.68;;;18.00;58.80;;;;;;5033053;28;20183;-64
2021/11/17 11:11:00;;;;;;;5.22;4.47;;;18.00;58.80;;;;;;5030990;28;20184;-64
2021/11/17 11:13:37;;;;;;;5.22;4.25;;;17.90;59.00;;;;;;5032948;28;20179;-63
2021/11/17 11:16:17;;;;;;;5.40;4.13;;;17.90;59.10;;;;;;5030580;28;20180;-64
2021/11/17 11:18:42;;;;;;;5.85;4.85;;;17.90;59.10;;;;;;5031271;28;20242;-64
2021/11/17 11:21:09;;;;;;;6.63;4.68;;;17.90;59.10;;;;;;5032582;28;20680;-63
2021/11/17 11:24:16;;;;;;;5.95;4.55;;;18.00;59.00;;;;;;5030288;28;20226;-63
2021/11/17 11:26:59;;;;;;;5.05;4.22;;;18.00;58.80;;;;;;5032032;28;20199;-63
2021/11/17 11:29:29;;;;;;;5.40;4.55;;;18.00;58.80;;;;;;5032018;28;20225;-63
2021/11/17 11:31:59;;;;;;;6.25;4.75;;;17.90;58.80;;;;;;5031752;28;20172;-64
2021/11/17 11:34:29;;;;;;;5.63;4.88;;;17.90;58.90;;;;;;5032343;28;20175;-65
2021/11/17 11:36:54;;;;;;;5.72;4.57;;;17.90;59.00;;;;;;5032232;28;20199;-65
2021/11/17 11:39:20;;;;;;;6.47;4.40;;;17.90;59.00;;;;;;5031696;28;20622;-67
2021/11/17 11:42:12;;;;;;;10.40;5.32;;;17.80;59.10;;;;;;5062439;28;20240;-65
2021/11/17 11:44:40;;;;;;;9.73;4.93;;;17.80;59.30;;;;;;5070791;28;20271;-64
2021/11/17 11:47:07;;;;;;;6.65;4.70;;;17.80;59.30;;;;;;5071802;28;20233;-65
2021/11/17 11:49:44;;;;;;;6.47;5.07;;;17.90;59.30;;;;;;5071667;28;20291;-64
2021/11/17 11:52:37;;;;;;;5.82;4.35;;;17.90;59.30;;;;;;5071305;28;20269;-64
2021/11/17 11:55:02;;;;;;;11.40;6.00;;;18.00;59.30;;;;;;5070558;28;20548;-65
2021/11/17 11:57:40;;;;;;;6.90;4.35;;;18.10;59.30;;;;;;5071730;28;20694;-70
2021/11/17 12:00:08;;;;;;;7.18;5.15;;;18.20;59.10;;;;;;5071194;28;20182;-65
2021/11/17 12:02:56;;;;;;;6.45;4.88;;;18.30;59.00;;;;;;5071490;28;20243;-64
2021/11/17 12:05:24;;;;;;;7.60;4.45;;;18.50;58.80;;;;;;5070999;28;20259;-65
2021/11/17 12:07:53;;;;;;;9.32;4.70;;;18.60;58.50;;;;;;5071310;28;20532;-64
2021/11/17 12:10:19;;;;;;;6.10;4.50;;;18.70;58.40;;;;;;5071657;28;20263;-63
2021/11/17 12:12:44;;;;;;;7.55;4.15;;;18.90;58.30;;;;;;5070902;28;20296;-64
2021/11/17 12:15:12;;;;;;;6.53;4.40;;;19.10;57.90;;;;;;5071948;28;20228;-66
2021/11/17 12:17:37;;;;;;;8.20;4.93;;;19.20;57.50;;;;;;5071470;28;20262;-63
2021/11/17 12:20:28;;;;;;;6.50;4.55;;;19.40;57.40;;;;;;5071133;28;20644;-65
2021/11/17 12:22:56;;;;;;;9.98;4.65;;;19.50;57.10;;;;;;5071447;28;20274;-65
2021/11/17 12:25:35;;;;;;;6.82;4.32;;;19.60;57.10;;;;;;5071865;28;20191;-65
2021/11/17 12:28:05;;;;;;;9.68;4.88;;;19.60;56.90;;;;;;5070925;28;20339;-66
2021/11/17 12:30:35;;;;;;;8.10;4.72;;;19.60;57.00;;;;;;5071362;28;20591;-66
2021/11/17 12:33:11;;;;;;;8.13;4.53;;;19.60;57.10;;;;;;5071605;28;20247;-67
2021/11/17 12:35:40;;;;;;;8.25;4.53;;;19.50;57.10;;;;;;5053992;28;20189;-67
2021/11/17 12:38:12;;;;;;;7.75;4.63;;;19.50;57.20;;;;;;5071828;28;20205;-68
2021/11/17 12:40:51;;;;;;;8.23;4.70;;;19.40;57.50;;;;;;5068413;28;20186;-67
2021/11/17 12:44:00;;;;;;;7.00;4.45;;;19.20;57.60;;;;;;5055654;28;20179;-66
2021/11/17 12:46:42;;;;;;;9.93;4.10;;;19.10;57.90;;;;;;5037810;28;20713;-66
2021/11/17 12:49:23;;;;;;;7.30;4.78;;;19.10;58.10;;;;;;5053396;28;20183;-66
2021/11/17 12:51:59;;;;;;;6.43;4.88;;;19.00;58.30;;;;;;5054961;28;20175;-65
2021/11/17 12:54:27;;;;;;;6.35;4.25;;;18.90;58.30;;;;;;5053311;28;20183;-65
2021/11/17 12:57:00;;;;;;;5.93;4.30;;;18.90;58.30;;;;;;5055036;28;20229;-66
2021/11/17 12:59:48;;;;;;;6.88;5.13;;;18.90;58.40;;;;;;5038109;28;20206;-66
2021/11/17 13:02:23;;;;;;;6.22;4.72;;;18.80;58.40;;;;;;5053066;28;20190;-67
2021/11/17 13:04:52;;;;;;;6.90;4.72;;;18.80;58.50;;;;;;5054932;28;20171;-66
2021/11/17 13:07:36;;;;;;;6.53;4.57;;;18.70;58.70;;;;;;5054009;28;20222;-66
2021/11/17 13:10:01;;;;;;;7.72;4.93;;;18.70;58.80;;;;;;5054358;28;20171;-65
2021/11/17 13:12:28;;;;;;;7.38;4.72;;;18.60;58.90;;;;;;5054879;28;20198;-65
2021/11/17 13:14:57;;;;;;;6.20;4.63;;;18.60;58.90;;;;;;5055051;28;20201;-65
2021/11/17 13:17:34;;;;;;;7.85;4.70;;;18.60;59.60;;;;;;5052917;28;20182;-65
2021/11/17 13:20:14;;;;;;;7.45;4.90;;;18.60;59.00;;;;;;5054707;28;20668;-65
2021/11/17 13:22:46;;;;;;;6.30;4.10;;;18.60;58.90;;;;;;5053681;28;20170;-65
2021/11/17 13:25:28;;;;;;;5.95;3.92;;;18.70;58.70;;;;;;5037481;28;20256;-65
2021/11/17 13:27:54;;;;;;;6.40;4.57;;;18.80;58.70;;;;;;5054724;28;20213;-65
2021/11/17 13:30:36;;;;;;;6.53;4.15;;;18.90;58.50;;;;;;5054043;28;20176;-65
2021/11/17 13:33:20;;;;;;;8.98;4.97;;;19.00;58.40;;;;;;5054447;28;20178;-65
2021/11/17 13:35:45;;;;;;;6.25;4.45;;;19.10;58.20;;;;;;5053983;28;20718;-66
2021/11/17 13:38:17;;;;;;;6.32;4.55;;;19.10;58.20;;;;;;5053743;28;20253;-66
2021/11/17 13:40:44;;;;;;;5.80;4.43;;;19.10;58.20;;;;;;5061064;28;20201;-65
2021/11/17 13:43:10;;;;;;;5.07;4.57;;;19.10;58.20;;;;;;5074190;28;20171;-63
2021/11/17 13:45:36;;;;;;;5.50;4.55;;;19.10;58.30;;;;;;5072900;28;20267;-63
2021/11/17 13:48:01;;;;;;;9.82;4.95;;;19.10;58.40;;;;;;5072727;28;20648;-64
2021/11/17 13:50:30;;;;;;;8.90;4.57;;;19.10;58.60;;;;;;5073332;28;20171;-64
2021/11/17 13:52:57;;;;;;;9.80;5.00;;;19.10;58.60;;;;;;5073679;28;20202;-63
2021/11/17 13:55:25;;;;;;;9.35;4.88;;;19.00;58.70;;;;;;5073894;28;20596;-64
2021/11/17 13:57:51;;;;;;;7.40;5.10;;;18.90;58.90;;;;;;5073071;28;20178;-63
2021/11/17 14:00:18;;;;;;;6.03;4.35;;;18.90;59.10;;;;;;5073848;28;20182;-64
2021/11/17 14:02:45;;;;;;;5.75;4.38;;;18.80;59.10;;;;;;5073708;28;20181;-63
2021/11/17 14:05:11;;;;;;;7.28;5.10;;;18.70;59.30;;;;;;5073247;28;20185;-62
2021/11/17 14:07:37;;;;;;;8.45;4.90;;;18.70;59.50;;;;;;5073660;28;20214;-63
2021/11/17 14:10:04;;;;;;;5.53;4.65;;;18.60;59.60;;;;;;5073657;28;20579;-63
2021/11/17 14:12:29;;;;;;;6.60;4.20;;;18.50;59.70;;;;;;5072701;28;20206;-63
2021/11/17 14:14:55;;;;;;;7.05;4.82;;;18.50;59.70;;;;;;5073574;28;20199;-63
2021/11/17 14:17:20;;;;;;;5.30;4.80;;;18.50;59.80;;;;;;5073441;28;20703;-62
2021/11/17 14:19:46;;;;;;;5.03;4.07;;;18.50;59.80;;;;;;5072635;28;20179;-63
2021/11/17 14:22:11;;;;;;;5.43;4.13;;;18.60;59.80;;;;;;5073647;28;20170;-63
2021/11/17 14:24:37;;;;;;;6.93;4.78;;;18.60;59.80;;;;;;5073209;28;20167;-63
2021/11/17 14:27:05;;;;;;;6.63;4.35;;;18.50;59.80;;;;;;5072557;28;20214;-63
2021/11/17 14:29:38;;;;;;;6.82;4.85;;;18.50;59.90;;;;;;5055647;28;20513;-64
2021/11/17 14:32:13;;;;;;;7.30;4.10;;;18.50;59.90;;;;;;5073318;28;20201;-64
2021/11/17 14:34:38;;;;;;;5.32;3.97;;;18.50;60.00;;;;;;5072526;28;20182;-64
2021/11/17 14:37:05;;;;;;;5.00;4.00;;;18.40;60.10;;;;;;5073391;28;20582;-66
2021/11/17 14:39:35;;;;;;;7.40;4.88;;;18.40;60.20;;;;;;5072791;28;20174;-65
2021/11/17 14:42:00;;;;;;;5.53;4.60;;;18.40;60.30;;;;;;5055013;28;20252;-65
2021/11/17 14:44:26;;;;;;;4.32;3.92;;;18.40;60.30;;;;;;5052742;28;20273;-64
2021/11/17 14:46:52;;;;;;;4.90;3.70;;;18.40;60.20;;;;;;5052133;28;20213;-64
2021/11/17 14:49:17;;;;;;;5.07;4.15;;;18.40;60.10;;;;;;5053102;28;20258;-66
2021/11/17 14:51:43;;;;;;;5.18;4.13;;;18.40;60.10;;;;;;5051828;28;20182;-65
2021/11/17 14:54:08;;;;;;;5.15;4.28;;;18.40;60.20;;;;;;5051512;28;20177;-67
2021/11/17 14:56:34;;;;;;;7.53;4.47;;;18.40;60.30;;;;;;5052996;28;20171;-66
2021/11/17 14:58:59;;;;;;;5.50;4.00;;;18.40;60.40;;;;;;5053057;28;20168;-66
2021/11/17 15:01:31;;;;;;;5.78;3.80;;;18.30;60.40;;;;;;5052286;28;20536;-66
2021/11/17 15:03:57;;;;;;;5.63;3.80;;;18.30;60.50;;;;;;5051952;28;20179;-66
2021/11/17 15:06:23;;;;;;;6.35;4.65;;;18.20;60.50;;;;;;5052589;28;20594;-63
2021/11/17 15:08:49;;;;;;;6.65;4.40;;;18.30;60.60;;;;;;5051467;28;20180;-62
2021/11/17 15:11:15;;;;;;;9.75;4.43;;;18.20;60.50;;;;;;5052415;28;20186;-62
2021/11/17 15:13:40;;;;;;;6.40;3.97;;;18.30;60.50;;;;;;5052277;28;20297;-62
2021/11/17 15:16:09;;;;;;;6.85;3.67;;;18.40;60.50;;;;;;5051831;28;20533;-62
2021/11/17 15:18:35;;;;;;;5.38;3.92;;;18.30;60.40;;;;;;5051863;28;20669;-63
2021/11/17 15:21:01;;;;;;;6.97;4.15;;;18.30;60.50;;;;;;5052466;28;20181;-62
2021/11/17 15:23:29;;;;;;;5.53;4.05;;;18.20;60.40;;;;;;5051464;28;20544;-63
2021/11/17 15:25:54;;;;;;;5.00;4.13;;;18.30;60.60;;;;;;5052194;28;20678;-62
2021/11/17 15:28:53;;;;;;;5.10;3.88;;;18.30;60.70;;;;;;5052194;28;20271;-62
2021/11/17 15:31:21;;;;;;;4.43;3.97;;;18.20;60.80;;;;;;5039513;28;20191;-64
2021/11/17 15:33:47;;;;;;;5.32;3.67;;;18.10;60.90;;;;;;5051898;28;20270;-63
2021/11/17 15:36:13;;;;;;;3.78;3.15;;;18.10;61.00;;;;;;5051332;28;20175;-64
2021/11/17 15:38:39;;;;;;;6.78;3.40;;;18.10;61.10;;;;;;5051512;28;20254;-64
2021/11/17 15:41:06;;;;;;;4.78;3.88;;;18.00;61.10;;;;;;5061842;28;20167;-64
2021/11/17 15:43:32;;;;;;;5.05;3.80;;;18.00;61.20;;;;;;5071097;28;20171;-65
2021/11/17 15:45:57;;;;;;;4.45;3.78;;;18.00;61.20;;;;;;5071833;28;20226;-64
2021/11/17 15:48:23;;;;;;;6.15;3.67;;;18.00;61.30;;;;;;5072212;28;20178;-62
2021/11/17 15:51:17;;;;;;;3.97;3.53;;;18.00;61.50;;;;;;5071276;28;20185;-62